createdAt,value
2023-03-02T04:12:00.240Z,0.00
2023-03-02T04:14:29.229Z,0.00
2023-03-02T04:17:00.168Z,0.00
2023-03-02T04:19:29.480Z,0.00
2023-03-02T04:22:01.869Z,0.00
2023-03-02T04:24:30.301Z,0.00
2023-03-02T04:27:03.263Z,0.00
2023-03-02T04:29:33.106Z,0.00
2023-03-02T04:32:03.725Z,0.00
2023-03-02T04:34:34.472Z,0.00
2023-03-02T04:37:04.046Z,0.00
2023-03-02T04:39:32.391Z,0.00
2023-03-02T04:42:02.034Z,0.00
2023-03-02T04:44:30.430Z,0.00
2023-03-02T04:46:58.802Z,0.00
2023-03-02T04:49:27.478Z,0.10
2023-03-02T04:51:55.700Z,0.00
2023-03-02T04:54:26.867Z,0.10
2023-03-02T04:56:56.309Z,0.10
2023-03-02T04:59:28.056Z,0.00
2023-03-02T05:01:58.737Z,0.00
2023-03-02T05:04:28.130Z,0.10
2023-03-02T05:06:56.380Z,0.00
2023-03-02T05:09:27.531Z,0.10
2023-03-02T05:11:56.348Z,0.10
2023-03-02T05:14:27.079Z,0.10
2023-03-02T05:16:55.780Z,0.10
2023-03-02T05:19:24.421Z,0.10
2023-03-02T05:21:52.855Z,0.10
2023-03-02T05:24:21.154Z,0.20
2023-03-02T05:26:49.441Z,0.10
2023-03-02T05:29:17.677Z,0.20
2023-03-02T05:31:48.139Z,0.20
2023-03-02T05:34:17.785Z,0.20
2023-03-02T05:36:47.126Z,0.20
2023-03-02T05:39:15.580Z,0.20
2023-03-02T05:41:43.890Z,0.20
2023-03-02T05:44:12.691Z,0.20
2023-03-02T05:46:41.750Z,0.20
2023-03-02T05:49:12.844Z,0.20
2023-03-02T05:51:43.619Z,0.20
2023-03-02T05:54:12.392Z,0.30
2023-03-02T05:56:42.026Z,0.20
2023-03-02T05:59:10.671Z,0.30
2023-03-02T06:01:39.227Z,0.30
2023-03-02T06:04:07.944Z,0.40
2023-03-02T06:06:42.197Z,0.30
2023-03-02T06:09:10.661Z,0.50
2023-03-02T06:11:38.957Z,0.30
2023-03-02T06:14:07.229Z,0.40
2023-03-02T06:16:37.300Z,0.30
2023-03-02T06:19:05.916Z,0.40
2023-03-02T06:21:34.379Z,0.40
2023-03-02T06:24:04.113Z,0.40
2023-03-02T06:26:36.671Z,0.40
2023-03-02T06:29:13.184Z,0.40
2023-03-02T06:31:42.137Z,0.50
2023-03-02T06:34:13.183Z,0.40
2023-03-02T06:36:43.878Z,0.40
2023-03-02T06:39:16.992Z,0.40
2023-03-02T06:41:46.154Z,0.40
2023-03-02T06:44:18.503Z,0.50
2023-03-02T06:46:51.696Z,0.50
2023-03-02T06:49:22.138Z,0.50
2023-03-02T06:51:52.556Z,0.70
2023-03-02T06:54:24.072Z,0.50
2023-03-02T06:57:01.403Z,0.60
2023-03-02T06:59:41.812Z,0.50
2023-03-02T07:02:12.834Z,0.60
2023-03-02T07:04:41.228Z,0.60
2023-03-02T07:07:09.457Z,0.60
2023-03-02T07:09:39.170Z,0.60
2023-03-02T07:12:07.886Z,0.60
2023-03-02T07:14:36.969Z,0.60
2023-03-02T07:17:05.903Z,0.60
2023-03-02T07:19:34.226Z,0.60
2023-03-02T07:22:02.575Z,0.70
2023-03-02T07:24:30.917Z,0.70
2023-03-02T07:27:00.603Z,0.80
2023-03-02T07:29:28.946Z,0.90
2023-03-02T07:32:00.563Z,0.90
2023-03-02T07:34:29.396Z,0.90
2023-03-02T07:36:58.004Z,1.00
2023-03-02T07:39:26.307Z,1.00
2023-03-02T07:41:57.092Z,1.00
2023-03-02T07:44:39.847Z,1.00
2023-03-02T07:47:12.445Z,1.10
2023-03-02T07:49:46.977Z,1.20
2023-03-02T07:52:22.077Z,1.10
2023-03-02T07:54:58.197Z,1.10
2023-03-02T07:57:28.723Z,1.10
2023-03-02T08:00:01.992Z,1.20
2023-03-02T08:02:57.517Z,1.30
2023-03-02T08:05:42.282Z,1.30
2023-03-02T08:08:59.159Z,1.20
2023-03-02T08:11:30.671Z,1.30
2023-03-02T08:14:08.529Z,1.30
2023-03-02T08:16:41.071Z,1.40
2023-03-02T08:19:14.554Z,1.40
2023-03-02T08:21:57.674Z,1.40
2023-03-02T08:24:31.119Z,1.50
2023-03-02T08:27:07.974Z,1.40
2023-03-02T08:29:39.790Z,1.50
2023-03-02T08:32:10.085Z,1.80
2023-03-02T08:34:52.068Z,1.60
2023-03-02T08:37:24.659Z,1.70
2023-03-02T08:40:03.276Z,1.70
2023-03-02T08:43:04.177Z,1.80
2023-03-02T08:45:23.005Z,1.80
2023-03-02T08:48:06.018Z,1.80
2023-03-02T08:50:50.180Z,1.80
2023-03-02T08:53:28.846Z,1.90
2023-03-02T08:56:20.829Z,1.90
2023-03-02T08:58:51.440Z,2.00
2023-03-02T09:01:22.945Z,2.10
2023-03-02T09:03:55.618Z,2.00
2023-03-02T09:06:43.162Z,2.10
2023-03-02T09:09:15.345Z,2.20
2023-03-02T09:11:53.130Z,2.20
2023-03-02T09:14:32.139Z,2.20
2023-03-02T09:17:03.958Z,2.20
2023-03-02T09:19:44.516Z,2.10
2023-03-02T09:22:21.582Z,2.10
2023-03-02T09:24:56.895Z,2.10
2023-03-02T09:27:32.732Z,2.10
2023-03-02T09:30:24.840Z,2.10
2023-03-02T09:33:27.234Z,2.20
2023-03-02T09:36:04.282Z,2.10
2023-03-02T09:38:33.112Z,2.10
2023-03-02T09:41:20.071Z,2.10
2023-03-02T09:44:00.076Z,2.20
2023-03-02T09:46:44.406Z,2.20
2023-03-02T09:49:28.793Z,2.20
2023-03-02T09:52:17.175Z,2.30
2023-03-02T09:54:51.139Z,2.20
2023-03-02T09:57:35.702Z,2.20
2023-03-02T10:00:19.061Z,2.40
2023-03-02T10:02:51.494Z,2.30
2023-03-02T10:05:24.363Z,2.30
2023-03-02T10:08:18.686Z,2.40
2023-03-02T10:10:59.468Z,2.50
2023-03-02T10:13:42.515Z,2.30
2023-03-02T10:16:30.266Z,2.40
2023-03-02T10:19:18.574Z,2.40
2023-03-02T10:21:59.704Z,2.30
2023-03-02T10:24:49.663Z,2.30
2023-03-02T10:27:28.181Z,2.30
2023-03-02T10:30:11.220Z,2.30
2023-03-02T10:33:03.970Z,2.40
2023-03-02T10:35:35.653Z,2.40
2023-03-02T10:38:13.663Z,2.30
2023-03-02T10:40:47.763Z,2.30
2023-03-02T10:43:30.763Z,2.30
2023-03-02T10:46:05.443Z,2.30
2023-03-02T10:48:50.934Z,2.30
2023-03-02T10:51:37.972Z,2.20
2023-03-02T10:54:19.319Z,2.20
2023-03-02T10:56:56.346Z,2.20
2023-03-02T10:59:43.769Z,2.20
2023-03-02T11:02:23.736Z,2.20
2023-03-02T11:05:23.886Z,2.20
2023-03-02T11:07:59.293Z,2.20
2023-03-02T11:10:35.193Z,2.20
2023-03-02T11:13:19.742Z,2.30
2023-03-02T11:15:55.709Z,2.40
2023-03-02T11:18:43.251Z,2.30
2023-03-02T11:21:24.689Z,2.40
2023-03-02T11:24:25.778Z,2.40
2023-03-02T11:27:02.443Z,2.40
2023-03-02T11:29:47.263Z,2.50
2023-03-02T11:32:23.079Z,2.40
2023-03-02T11:35:20.162Z,2.40
2023-03-02T11:37:57.435Z,2.50
2023-03-02T11:40:48.663Z,2.50
2023-03-02T11:43:38.140Z,2.50
2023-03-02T11:46:35.631Z,2.60
2023-03-02T11:49:11.784Z,2.50
2023-03-02T11:51:57.826Z,2.50
2023-03-02T11:54:37.860Z,2.60
2023-03-02T11:57:06.707Z,2.60
2023-03-02T11:59:35.875Z,2.60
2023-03-02T12:02:06.099Z,2.60
2023-03-02T12:04:38.232Z,2.60
2023-03-02T12:07:19.653Z,2.60
2023-03-02T12:10:04.568Z,2.60
2023-03-02T12:12:44.578Z,2.60
2023-03-02T12:15:39.329Z,2.70
2023-03-02T12:18:35.013Z,2.70
2023-03-02T12:21:10.233Z,2.60
2023-03-02T12:23:56.060Z,2.60
2023-03-02T12:26:37.041Z,2.50
2023-03-02T12:29:24.958Z,2.50
2023-03-02T12:31:55.499Z,2.50
2023-03-02T12:34:36.433Z,2.50
2023-03-02T12:37:13.644Z,2.40
2023-03-02T12:40:10.868Z,2.40
2023-03-02T12:43:16.178Z,2.40
2023-03-02T12:45:59.552Z,2.50
2023-03-02T12:48:31.847Z,2.50
2023-03-02T12:51:19.919Z,2.70
2023-03-02T12:53:53.073Z,2.90
2023-03-02T12:56:27.364Z,3.00
2023-03-02T12:58:59.457Z,3.10
2023-03-02T13:01:39.298Z,3.10
2023-03-02T13:04:16.187Z,3.20
2023-03-02T13:06:52.320Z,3.30
2023-03-02T13:09:26.398Z,3.40
2023-03-02T13:12:03.300Z,3.40
2023-03-02T13:14:39.823Z,3.40
2023-03-02T13:17:28.442Z,3.20
2023-03-02T13:20:07.824Z,3.40
2023-03-02T13:22:44.474Z,3.40
2023-03-02T13:25:31.150Z,3.50
2023-03-02T13:28:07.728Z,3.50
2023-03-02T13:30:48.900Z,3.40
2023-03-02T13:33:26.072Z,3.40
2023-03-02T13:36:31.605Z,3.40
2023-03-02T13:39:22.100Z,3.50
2023-03-02T13:42:04.510Z,3.50
2023-03-02T13:44:36.324Z,3.50
2023-03-02T13:47:19.513Z,3.60
2023-03-02T13:49:50.788Z,3.30
2023-03-02T13:52:28.501Z,3.30
2023-03-02T13:55:02.442Z,3.30
2023-03-02T13:57:36.051Z,3.30
2023-03-02T14:00:34.011Z,3.30
2023-03-02T14:03:05.874Z,3.30
2023-03-02T14:05:34.550Z,3.20
2023-03-02T14:08:07.065Z,3.20
2023-03-02T14:10:42.500Z,3.20
2023-03-02T14:13:28.852Z,3.20
2023-03-02T14:16:01.611Z,3.20
2023-03-02T14:18:48.450Z,3.20
2023-03-02T14:21:19.558Z,3.10
2023-03-02T14:23:57.568Z,3.20
2023-03-02T14:26:34.998Z,3.20
2023-03-02T14:29:07.494Z,3.20
2023-03-02T14:31:40.281Z,3.10
2023-03-02T14:34:18.650Z,3.20
2023-03-02T14:36:52.740Z,3.20
2023-03-02T14:39:27.522Z,3.10
2023-03-02T14:42:13.363Z,3.20
2023-03-02T14:44:47.064Z,3.20
2023-03-02T14:47:20.598Z,3.20
2023-03-02T14:49:51.294Z,3.20
2023-03-02T14:52:26.327Z,3.20
2023-03-02T14:55:04.205Z,3.10
2023-03-02T14:57:41.896Z,3.10
2023-03-02T15:00:21.178Z,3.10
2023-03-02T15:03:00.359Z,3.10
2023-03-02T15:05:37.507Z,3.10
2023-03-02T15:08:20.340Z,3.00
2023-03-02T15:10:58.821Z,3.00
2023-03-02T15:13:49.786Z,2.90
2023-03-02T15:16:26.726Z,2.90
2023-03-02T15:19:10.487Z,2.90
2023-03-02T15:21:47.909Z,2.70
2023-03-02T15:24:33.981Z,2.60
2023-03-02T15:27:35.179Z,2.50
2023-03-02T15:30:16.254Z,2.40
2023-03-02T15:32:51.346Z,2.20
2023-03-02T15:35:21.542Z,2.10
2023-03-02T15:37:58.362Z,2.00
2023-03-02T15:40:34.258Z,1.80
2023-03-02T15:43:22.801Z,1.70
2023-03-02T15:45:58.931Z,1.50
2023-03-02T15:48:32.420Z,1.40
2023-03-02T15:51:08.573Z,1.30
2023-03-02T15:53:42.229Z,1.10
2023-03-02T15:56:17.482Z,1.00
2023-03-02T15:59:19.317Z,1.00
2023-03-02T16:02:10.331Z,0.80
2023-03-02T16:05:09.889Z,0.70
2023-03-02T16:07:45.314Z,0.60
2023-03-02T16:10:43.266Z,0.60
2023-03-02T16:13:13.200Z,0.30
2023-03-02T16:15:44.229Z,0.20
2023-03-02T16:18:20.108Z,0.10
2023-03-02T16:20:55.281Z,-0.10
2023-03-02T16:23:27.805Z,-0.20
2023-03-02T16:26:07.523Z,-0.30
2023-03-02T16:28:36.034Z,-0.50
2023-03-02T16:31:05.733Z,-0.50
2023-03-02T16:33:35.990Z,-0.60
2023-03-02T16:36:04.753Z,-0.60
2023-03-02T16:38:33.529Z,-0.70
2023-03-02T16:41:05.685Z,-0.80
2023-03-02T16:43:34.541Z,-0.90
2023-03-02T16:46:07.853Z,-1.00
2023-03-02T16:48:40.852Z,-1.10
2023-03-02T16:51:10.039Z,-1.10
2023-03-02T16:53:40.887Z,-1.10
2023-03-02T16:56:10.891Z,-1.30
2023-03-02T16:58:43.219Z,-1.40
2023-03-02T17:01:18.404Z,-1.30
2023-03-02T17:03:54.831Z,-1.40
2023-03-02T17:06:26.202Z,-1.50
2023-03-02T17:08:57.140Z,-1.50
2023-03-02T17:11:26.154Z,-1.60
2023-03-02T17:13:54.761Z,-1.70
2023-03-02T17:16:26.829Z,-1.70
2023-03-02T17:19:09.476Z,-1.60
2023-03-02T17:21:40.183Z,-1.70
2023-03-02T17:24:45.323Z,-1.80
2023-03-02T17:27:24.836Z,-1.70
2023-03-02T17:29:57.657Z,-1.70
2023-03-02T17:32:27.534Z,-1.90
2023-03-02T17:35:00.863Z,-1.80
2023-03-02T17:37:32.031Z,-1.90
2023-03-02T17:40:00.916Z,-1.90
2023-03-02T17:42:39.843Z,-1.80
2023-03-02T17:45:19.219Z,-2.10
2023-03-02T17:47:54.910Z,-2.10
2023-03-02T17:50:34.197Z,-2.10
2023-03-02T17:53:06.570Z,-2.00
2023-03-02T17:55:35.212Z,-2.10
2023-03-02T17:58:06.094Z,-2.10
2023-03-02T18:00:36.955Z,-2.10
2023-03-02T18:03:05.571Z,-2.20
2023-03-02T18:05:35.380Z,-2.20
2023-03-02T18:08:03.915Z,-2.20
2023-03-02T18:10:32.371Z,-2.20
2023-03-02T18:13:00.860Z,-2.20
2023-03-02T18:15:31.512Z,-2.30
2023-03-02T18:18:00.032Z,-2.30
2023-03-02T18:20:28.516Z,-2.40
2023-03-02T18:22:58.447Z,-2.40
2023-03-02T18:25:27.512Z,-2.40
2023-03-02T18:27:56.082Z,-2.40
2023-03-02T18:30:25.375Z,-2.40
2023-03-02T18:32:53.837Z,-2.40
2023-03-02T18:35:22.725Z,-2.50
2023-03-02T18:37:51.772Z,-2.50
2023-03-02T18:40:21.949Z,-2.50
2023-03-02T18:42:50.274Z,-2.50
2023-03-02T18:45:23.269Z,-2.50
2023-03-02T18:47:51.576Z,-2.50
2023-03-02T18:50:20.513Z,-2.60
2023-03-02T18:52:50.350Z,-2.60
2023-03-02T18:55:23.309Z,-2.50
2023-03-02T18:57:55.133Z,-2.50
2023-03-02T19:00:28.342Z,-2.40
2023-03-02T19:03:00.391Z,-2.50
2023-03-02T19:05:30.468Z,-2.50
2023-03-02T19:08:22.691Z,-2.50
2023-03-02T19:10:57.392Z,-2.60
2023-03-02T19:13:27.290Z,-2.60
2023-03-02T19:15:56.254Z,-2.40
2023-03-02T19:18:32.431Z,-2.50
2023-03-02T19:21:05.546Z,-2.70
2023-03-02T19:23:39.448Z,-2.70
2023-03-02T19:26:10.794Z,-2.60
2023-03-02T19:28:40.898Z,-2.50
2023-03-02T19:31:11.690Z,-2.60
2023-03-02T19:33:41.196Z,-2.70
2023-03-02T19:36:15.509Z,-2.80
2023-03-02T19:38:44.694Z,-2.60
2023-03-02T19:41:19.783Z,-2.80
2023-03-02T19:43:52.547Z,-2.80
2023-03-02T19:46:24.377Z,-2.80
2023-03-02T19:48:57.488Z,-2.70
2023-03-02T19:51:28.092Z,-2.90
2023-03-02T19:53:59.413Z,-2.80
2023-03-02T19:56:35.012Z,-2.90
2023-03-02T19:59:05.074Z,-2.80
2023-03-02T20:01:33.876Z,-2.80
2023-03-02T20:04:02.333Z,-2.80
2023-03-02T20:06:41.022Z,-2.90
2023-03-02T20:09:09.930Z,-2.80
2023-03-02T20:11:41.797Z,-2.70
2023-03-02T20:14:21.395Z,-2.80
2023-03-02T20:16:56.289Z,-2.90
2023-03-02T20:19:24.756Z,-2.90
2023-03-02T20:21:53.325Z,-2.90
2023-03-02T20:24:24.646Z,-2.90
2023-03-02T20:26:53.215Z,-2.90
2023-03-02T20:29:25.305Z,-2.90
2023-03-02T20:31:53.772Z,-2.90
2023-03-02T20:34:23.629Z,-2.90
2023-03-02T20:36:52.146Z,-2.80
2023-03-02T20:39:24.284Z,-3.00
2023-03-02T20:41:53.287Z,-3.00
2023-03-02T20:44:22.459Z,-2.90
2023-03-02T20:46:54.810Z,-1.70
2023-03-02T20:49:25.318Z,-2.00
2023-03-02T20:51:54.943Z,-2.30
2023-03-02T20:54:25.822Z,-2.40
2023-03-02T20:56:54.389Z,-2.60
2023-03-02T20:59:23.796Z,-2.70
2023-03-02T21:01:53.984Z,-2.80
2023-03-02T21:04:28.950Z,-2.90
2023-03-02T21:06:59.071Z,-2.90
2023-03-02T21:09:30.907Z,-3.10
2023-03-02T21:11:59.231Z,-3.00
2023-03-02T21:14:29.899Z,-3.10
2023-03-02T21:17:02.094Z,-3.10
2023-03-02T21:19:38.574Z,-3.10
2023-03-02T21:22:12.256Z,-3.20
2023-03-02T21:24:44.091Z,-3.20
2023-03-02T21:27:15.664Z,-3.20
2023-03-02T21:29:52.633Z,-3.20
2023-03-02T21:32:22.706Z,-3.20
2023-03-02T21:35:02.596Z,-3.20
2023-03-02T21:37:31.078Z,-3.10
2023-03-02T21:40:00.761Z,-3.20
2023-03-02T21:42:29.417Z,-3.30
2023-03-02T21:44:57.848Z,-3.30
2023-03-02T21:47:27.762Z,-3.30
2023-03-02T21:50:03.779Z,-3.20
2023-03-02T21:52:32.449Z,-3.30
2023-03-02T21:55:00.915Z,-3.10
2023-03-02T21:57:29.646Z,-3.30
2023-03-02T21:59:58.368Z,-3.20
2023-03-02T22:02:30.820Z,-3.30
2023-03-02T22:05:00.725Z,-3.30
2023-03-02T22:07:29.365Z,-3.20
2023-03-02T22:09:59.780Z,-3.20
2023-03-02T22:12:28.800Z,-3.20
2023-03-02T22:14:59.422Z,-3.20
2023-03-02T22:17:44.164Z,-3.00
2023-03-02T22:20:18.809Z,-3.20
2023-03-02T22:22:53.310Z,-3.20
2023-03-02T22:25:24.489Z,-3.30
2023-03-02T22:27:53.323Z,-3.30
2023-03-02T22:30:23.540Z,-3.30
2023-03-02T22:32:56.815Z,-3.20
2023-03-02T22:35:30.638Z,-3.30
2023-03-02T22:38:06.438Z,-3.30
2023-03-02T22:40:35.931Z,-3.40
2023-03-02T22:43:15.162Z,-3.40
2023-03-02T22:45:43.602Z,-3.40
2023-03-02T22:48:16.200Z,-3.30
2023-03-02T22:50:46.364Z,-3.40
2023-03-02T22:53:30.231Z,-3.50
2023-03-02T22:56:00.804Z,-3.50
2023-03-02T22:58:45.674Z,-3.50
2023-03-02T23:01:25.736Z,-3.40
2023-03-02T23:03:59.324Z,-3.40
2023-03-02T23:06:30.329Z,-3.30
2023-03-02T23:09:00.410Z,-3.30
2023-03-02T23:11:29.860Z,-3.30
2023-03-02T23:13:58.143Z,-3.30
2023-03-02T23:16:29.361Z,-3.30
2023-03-02T23:18:59.433Z,-3.30
2023-03-02T23:21:32.041Z,-3.40
2023-03-02T23:24:01.526Z,-3.40
2023-03-02T23:26:29.890Z,-3.30
2023-03-02T23:28:58.142Z,-3.40
2023-03-02T23:31:27.234Z,-3.40
2023-03-02T23:33:55.758Z,-3.40
2023-03-02T23:36:26.344Z,-3.50
2023-03-02T23:38:54.625Z,-3.60
2023-03-02T23:41:23.000Z,-3.50
2023-03-02T23:43:51.388Z,-3.50
2023-03-02T23:46:19.806Z,-3.50
2023-03-02T23:48:48.170Z,-3.50
2023-03-02T23:51:16.830Z,-3.50
2023-03-02T23:53:47.267Z,-3.50
2023-03-02T23:56:15.590Z,-3.50
2023-03-02T23:58:43.872Z,-3.40
